createdAt,value
2022-12-13T00:02:01.196Z,98.86
2022-12-13T00:04:30.016Z,98.99
2022-12-13T00:06:58.568Z,99.04
2022-12-13T00:09:27.223Z,99.12
2022-12-13T00:11:55.830Z,99.03
2022-12-13T00:14:24.348Z,99.09
2022-12-13T00:16:52.954Z,99.17
2022-12-13T00:19:21.502Z,99.20
2022-12-13T00:21:50.094Z,99.23
2022-12-13T00:24:18.699Z,99.36
2022-12-13T00:26:47.254Z,99.28
2022-12-13T00:29:15.846Z,99.32
2022-12-13T00:31:59.303Z,99.56
2022-12-13T00:34:30.249Z,99.43
2022-12-13T00:36:59.382Z,99.52
2022-12-13T00:39:28.749Z,99.56
2022-12-13T00:41:58.049Z,99.43
2022-12-13T00:44:26.957Z,99.47
2022-12-13T00:46:56.616Z,99.62
2022-12-13T00:49:25.269Z,99.50
2022-12-13T00:51:53.906Z,99.68
2022-12-13T00:54:22.549Z,99.60
2022-12-13T00:56:51.656Z,99.59
2022-12-13T00:59:20.381Z,99.73
2022-12-13T01:01:49.081Z,99.76
2022-12-13T01:04:17.722Z,99.72
2022-12-13T01:06:50.064Z,99.81
2022-12-13T01:09:31.060Z,99.79
2022-12-13T01:12:02.626Z,99.97
2022-12-13T01:14:32.213Z,99.95
2022-12-13T01:17:00.904Z,99.91
2022-12-13T01:19:29.626Z,99.94
2022-12-13T01:22:01.260Z,99.90
2022-12-13T01:24:31.592Z,99.85
2022-12-13T01:27:00.573Z,99.91
2022-12-13T01:29:29.345Z,99.88
2022-12-13T01:31:57.872Z,99.85
2022-12-13T01:34:27.733Z,99.87
2022-12-13T01:36:58.199Z,99.86
2022-12-13T01:39:28.087Z,99.79
2022-12-13T01:42:00.241Z,99.92
2022-12-13T01:44:57.249Z,99.82
2022-12-13T01:47:43.861Z,99.92
2022-12-13T01:50:21.194Z,99.91
2022-12-13T01:52:50.496Z,99.91
2022-12-13T01:55:22.594Z,99.91
2022-12-13T01:57:53.759Z,99.93
2022-12-13T02:00:22.465Z,99.92
2022-12-13T02:02:51.530Z,99.95
2022-12-13T02:05:24.625Z,99.99
2022-12-13T02:07:53.723Z,99.93
2022-12-13T02:10:22.389Z,99.93
2022-12-13T02:12:51.219Z,99.73
2022-12-13T02:15:20.969Z,99.79
2022-12-13T02:18:27.366Z,99.73
2022-12-13T02:21:28.866Z,99.65
2022-12-13T02:24:12.405Z,99.57
2022-12-13T02:27:17.002Z,99.39
2022-12-13T02:30:01.993Z,99.16
2022-12-13T02:33:09.045Z,99.17
2022-12-13T02:36:07.486Z,99.09
2022-12-13T02:38:49.225Z,99.08
2022-12-13T02:41:29.846Z,99.05
2022-12-13T02:44:22.731Z,99.00
2022-12-13T02:47:05.854Z,98.89
2022-12-13T02:49:48.361Z,98.87
2022-12-13T02:52:22.662Z,98.89
2022-12-13T02:54:53.760Z,98.81
2022-12-13T02:57:38.834Z,98.75
2022-12-13T03:00:12.515Z,98.57
2022-12-13T03:02:56.947Z,98.69
2022-12-13T03:06:04.296Z,98.69
2022-12-13T03:09:10.602Z,98.57
2022-12-13T03:12:32.467Z,98.54
2022-12-13T03:15:18.058Z,98.33
2022-12-13T03:18:17.839Z,98.27
2022-12-13T03:20:57.090Z,98.26
2022-12-13T03:23:27.327Z,98.04
2022-12-13T03:26:01.677Z,98.06
2022-12-13T03:28:30.233Z,97.94
2022-12-13T03:30:58.894Z,97.81
2022-12-13T03:33:27.631Z,97.75
2022-12-13T03:35:56.674Z,97.65
2022-12-13T03:38:25.932Z,97.47
2022-12-13T03:41:01.100Z,97.31
2022-12-13T03:43:30.041Z,97.26
2022-12-13T03:45:58.649Z,97.07
2022-12-13T03:48:27.639Z,96.95
2022-12-13T03:50:56.963Z,96.83
2022-12-13T03:53:33.374Z,96.77
2022-12-13T03:56:06.417Z,96.51
2022-12-13T03:58:38.117Z,96.41
2022-12-13T04:01:17.052Z,96.31
2022-12-13T04:03:47.450Z,96.12
2022-12-13T04:06:21.733Z,95.94
2022-12-13T04:08:53.045Z,96.03
2022-12-13T04:11:43.106Z,95.93
2022-12-13T04:14:12.372Z,95.76
2022-12-13T04:16:52.492Z,95.62
2022-12-13T04:19:23.126Z,95.39
2022-12-13T04:21:54.427Z,95.31
2022-12-13T04:24:31.630Z,95.19
2022-12-13T04:27:02.019Z,95.27
2022-12-13T04:29:33.895Z,95.15
2022-12-13T04:32:26.101Z,95.19
2022-12-13T04:35:01.338Z,95.16
2022-12-13T04:37:43.448Z,95.19
2022-12-13T04:40:12.584Z,95.24
2022-12-13T04:42:41.137Z,95.43
2022-12-13T04:45:15.965Z,95.45
2022-12-13T04:47:44.965Z,95.56
2022-12-13T04:50:13.499Z,95.64
2022-12-13T04:52:42.141Z,95.71
2022-12-13T04:55:10.985Z,95.60
2022-12-13T04:57:40.341Z,95.79
2022-12-13T05:00:13.381Z,95.84
2022-12-13T05:02:42.461Z,95.98
2022-12-13T05:05:11.984Z,96.12
2022-12-13T05:07:42.094Z,96.21
2022-12-13T05:10:12.056Z,96.11
2022-12-13T05:12:40.582Z,96.36
2022-12-13T05:15:09.484Z,96.33
2022-12-13T05:17:38.025Z,96.31
2022-12-13T05:20:07.048Z,96.42
2022-12-13T05:22:35.777Z,96.33
2022-12-13T05:25:06.957Z,96.38
2022-12-13T05:27:35.498Z,96.39
2022-12-13T05:30:05.417Z,96.51
2022-12-13T05:32:44.120Z,96.54
2022-12-13T05:35:21.774Z,96.72
2022-12-13T05:37:53.548Z,96.90
2022-12-13T05:40:29.119Z,97.09
2022-12-13T05:43:01.169Z,97.12
2022-12-13T05:45:32.592Z,97.19
2022-12-13T05:48:01.954Z,97.65
2022-12-13T05:50:30.777Z,97.51
2022-12-13T05:52:59.285Z,97.61
2022-12-13T05:55:27.822Z,97.72
2022-12-13T05:58:02.513Z,98.07
2022-12-13T06:00:31.498Z,98.03
2022-12-13T06:03:01.890Z,98.26
2022-12-13T06:05:31.513Z,98.32
2022-12-13T06:08:00.708Z,98.51
2022-12-13T06:10:34.940Z,98.66
2022-12-13T06:13:21.776Z,98.86
2022-12-13T06:16:01.304Z,98.89
2022-12-13T06:18:33.216Z,98.97
2022-12-13T06:21:07.244Z,98.97
2022-12-13T06:23:36.449Z,99.01
2022-12-13T06:26:07.329Z,99.19
2022-12-13T06:28:36.138Z,99.17
2022-12-13T06:31:05.446Z,99.13
2022-12-13T06:33:38.446Z,98.97
2022-12-13T06:36:07.836Z,98.88
2022-12-13T06:38:43.373Z,98.88
2022-12-13T06:41:16.756Z,98.88
2022-12-13T06:43:46.874Z,98.67
2022-12-13T06:46:16.100Z,98.70
2022-12-13T06:48:45.126Z,98.74
2022-12-13T06:51:22.959Z,98.81
2022-12-13T06:53:51.806Z,98.68
2022-12-13T06:57:40.753Z,99.06
2022-12-13T07:00:12.515Z,98.79
2022-12-13T07:02:41.122Z,98.89
2022-12-13T07:05:10.930Z,98.90
2022-12-13T07:07:39.564Z,99.21
2022-12-13T07:10:12.646Z,99.13
2022-12-13T07:12:50.836Z,99.12
2022-12-13T07:15:19.376Z,99.25
2022-12-13T07:17:52.377Z,99.34
2022-12-13T07:20:22.773Z,99.38
2022-12-13T07:22:58.843Z,99.33
2022-12-13T07:25:29.720Z,99.42
2022-12-13T07:28:02.947Z,99.63
2022-12-13T07:30:41.148Z,99.73
2022-12-13T07:33:11.542Z,99.62
2022-12-13T07:35:41.348Z,99.59
2022-12-13T07:38:11.829Z,99.69
2022-12-13T07:40:41.555Z,99.61
2022-12-13T07:43:10.249Z,99.50
2022-12-13T07:45:38.817Z,99.39
2022-12-13T07:48:08.878Z,99.52
2022-12-13T07:50:38.085Z,99.50
2022-12-13T07:53:08.557Z,99.39
2022-12-13T07:55:38.326Z,99.71
2022-12-13T07:58:15.724Z,99.88
2022-12-13T08:00:46.925Z,99.95
2022-12-13T08:03:25.571Z,99.92
2022-12-13T08:06:08.780Z,99.89
2022-12-13T08:08:38.466Z,99.68
2022-12-13T08:11:11.247Z,99.52
2022-12-13T08:13:41.124Z,99.08
2022-12-13T08:16:27.506Z,98.87
2022-12-13T08:19:02.658Z,98.58
2022-12-13T08:21:58.325Z,98.40
2022-12-13T08:24:31.057Z,98.05
2022-12-13T08:27:03.081Z,98.02
2022-12-13T08:29:36.773Z,97.84
2022-12-13T08:32:10.588Z,97.81
2022-12-13T08:34:41.608Z,97.91
2022-12-13T08:37:10.207Z,97.78
2022-12-13T08:39:39.975Z,97.42
2022-12-13T08:42:15.885Z,97.33
2022-12-13T08:44:50.890Z,97.20
2022-12-13T08:47:25.231Z,97.10
2022-12-13T08:50:01.360Z,96.90
2022-12-13T08:52:40.705Z,96.78
2022-12-13T08:55:15.513Z,96.54
2022-12-13T08:57:45.373Z,95.85
2022-12-13T09:00:18.339Z,95.32
2022-12-13T09:02:47.188Z,94.83
2022-12-13T09:05:33.517Z,94.54
2022-12-13T09:08:23.018Z,94.39
2022-12-13T09:11:01.311Z,94.20
2022-12-13T09:13:43.400Z,93.84
2022-12-13T09:16:25.845Z,93.39
2022-12-13T09:18:55.223Z,92.76
2022-12-13T09:21:30.975Z,92.44
2022-12-13T09:24:02.176Z,92.14
2022-12-13T09:26:38.470Z,92.34
2022-12-13T09:29:10.331Z,92.35
2022-12-13T09:31:40.991Z,91.99
2022-12-13T09:34:11.573Z,92.04
2022-12-13T09:36:40.301Z,91.87
2022-12-13T09:39:11.952Z,91.93
2022-12-13T09:41:53.134Z,91.71
2022-12-13T09:45:02.236Z,91.78
2022-12-13T09:47:39.317Z,91.72
2022-12-13T09:50:37.658Z,91.46
2022-12-13T09:53:12.067Z,91.22
2022-12-13T09:55:52.516Z,90.93
2022-12-13T09:58:28.051Z,91.31
2022-12-13T10:00:57.792Z,91.66
2022-12-13T10:03:27.468Z,91.79
2022-12-13T10:06:02.307Z,91.40
2022-12-13T10:08:37.424Z,91.18
2022-12-13T10:11:06.446Z,90.84
2022-12-13T10:14:01.424Z,90.91
2022-12-13T10:16:37.238Z,90.62
2022-12-13T10:19:35.375Z,90.68
2022-12-13T10:22:09.541Z,90.40
2022-12-13T10:24:48.902Z,90.36
2022-12-13T10:27:33.608Z,90.03
2022-12-13T10:30:28.561Z,90.33
2022-12-13T10:33:04.876Z,90.10
2022-12-13T10:35:41.717Z,89.98
2022-12-13T10:38:16.769Z,89.89
2022-12-13T10:40:46.770Z,89.44
2022-12-13T10:43:15.384Z,89.40
2022-12-13T10:45:59.573Z,89.29
2022-12-13T10:48:50.737Z,89.49
2022-12-13T10:51:23.024Z,88.94
2022-12-13T10:54:00.773Z,89.09
2022-12-13T10:56:51.501Z,89.01
2022-12-13T10:59:31.202Z,88.85
2022-12-13T11:02:01.876Z,88.40
2022-12-13T11:04:35.294Z,87.93
2022-12-13T11:07:32.431Z,87.97
2022-12-13T11:10:27.593Z,88.12
2022-12-13T11:13:06.459Z,87.71
2022-12-13T11:15:38.725Z,87.51
2022-12-13T11:18:23.609Z,86.83
2022-12-13T11:21:02.865Z,86.49
2022-12-13T11:23:45.927Z,85.87
2022-12-13T11:26:24.743Z,85.96
2022-12-13T11:29:15.955Z,85.37
2022-12-13T11:32:05.912Z,84.61
2022-12-13T11:35:09.396Z,84.53
2022-12-13T11:38:02.537Z,84.01
2022-12-13T11:40:40.140Z,84.03
2022-12-13T11:43:36.430Z,83.24
2022-12-13T11:46:22.431Z,83.37
2022-12-13T11:49:01.499Z,83.80
2022-12-13T11:52:06.012Z,83.87
2022-12-13T11:54:46.493Z,83.68
2022-12-13T11:57:45.261Z,84.08
2022-12-13T12:00:59.674Z,84.21
2022-12-13T12:03:45.733Z,83.82
2022-12-13T12:06:29.751Z,83.71
2022-12-13T12:09:09.896Z,83.98
2022-12-13T12:12:00.243Z,84.34
2022-12-13T12:14:50.023Z,84.67
2022-12-13T12:17:25.668Z,84.92
2022-12-13T12:19:57.654Z,84.76
2022-12-13T12:22:44.684Z,85.06
2022-12-13T12:25:36.383Z,85.26
2022-12-13T12:28:31.782Z,85.44
2022-12-13T12:31:17.143Z,85.49
2022-12-13T12:34:43.302Z,85.64
2022-12-13T12:38:04.813Z,85.31
2022-12-13T12:41:24.849Z,85.43
2022-12-13T12:44:17.324Z,85.29
2022-12-13T12:50:27.366Z,84.96
2022-12-13T12:53:34.246Z,84.69
2022-12-13T12:56:34.406Z,84.47
2022-12-13T12:59:42.856Z,84.38
2022-12-13T13:02:25.955Z,84.74
2022-12-13T13:05:09.679Z,84.74
2022-12-13T13:07:51.373Z,85.00
2022-12-13T13:10:26.341Z,84.98
2022-12-13T13:13:12.445Z,85.23
2022-12-13T13:15:41.777Z,85.40
2022-12-13T13:18:49.484Z,85.40
2022-12-13T13:21:23.817Z,85.57
2022-12-13T13:24:01.473Z,85.43
2022-12-13T13:26:45.311Z,85.45
2022-12-13T13:29:33.358Z,85.35
2022-12-13T13:32:11.403Z,85.47
2022-12-13T13:34:48.475Z,85.48
2022-12-13T13:37:26.123Z,85.42
2022-12-13T13:39:59.324Z,85.43
2022-12-13T13:42:32.940Z,85.58
2022-12-13T13:45:22.768Z,85.50
2022-12-13T13:48:49.467Z,85.31
2022-12-13T13:56:00.121Z,85.15
2022-12-13T13:58:51.418Z,85.45
2022-12-13T14:02:01.027Z,85.46
2022-12-13T14:05:26.851Z,85.46
2022-12-13T14:08:20.303Z,85.43
2022-12-13T14:11:07.892Z,85.32
2022-12-13T14:14:00.846Z,85.45
2022-12-13T14:17:00.413Z,85.58
2022-12-13T14:20:24.658Z,85.62
2022-12-13T14:23:27.045Z,85.55
2022-12-13T14:26:32.510Z,85.68
2022-12-13T14:29:10.601Z,85.68
2022-12-13T14:31:49.813Z,85.74
2022-12-13T14:34:33.120Z,85.77
2022-12-13T14:37:20.530Z,85.68
2022-12-13T14:39:49.349Z,85.72
2022-12-13T14:42:33.903Z,85.81
2022-12-13T14:45:37.026Z,85.91
2022-12-13T14:48:16.229Z,86.17
2022-12-13T14:50:58.073Z,86.07
2022-12-13T14:53:39.400Z,86.04
2022-12-13T14:56:28.863Z,86.01
2022-12-13T14:59:12.424Z,86.04
2022-12-13T15:01:41.497Z,86.17
2022-12-13T15:04:26.945Z,86.17
2022-12-13T15:07:09.486Z,86.12
2022-12-13T15:09:43.107Z,86.30
2022-12-13T15:12:23.872Z,86.31
2022-12-13T15:15:02.767Z,86.51
2022-12-13T15:17:38.958Z,86.11
2022-12-13T15:20:31.953Z,85.66
2022-12-13T15:23:15.057Z,85.21
2022-12-13T15:25:44.558Z,85.09
2022-12-13T15:28:18.130Z,85.29
2022-12-13T15:30:51.019Z,85.08
2022-12-13T15:33:30.490Z,85.21
2022-12-13T15:36:16.993Z,85.03
2022-12-13T15:38:57.509Z,84.71
2022-12-13T15:41:31.073Z,84.61
2022-12-13T15:44:17.257Z,84.72
2022-12-13T15:46:50.292Z,85.38
2022-12-13T15:49:38.453Z,85.47
2022-12-13T15:52:19.927Z,85.08
2022-12-13T15:55:12.839Z,84.20
2022-12-13T15:57:57.520Z,83.98
2022-12-13T16:00:34.761Z,84.22
2022-12-13T16:03:16.288Z,84.50
2022-12-13T16:20:07.640Z,83.97
2022-12-13T16:22:37.862Z,83.84
2022-12-13T16:25:06.826Z,83.91
2022-12-13T16:27:37.624Z,83.68
2022-12-13T16:30:22.680Z,83.25
2022-12-13T16:35:40.483Z,84.93
2022-12-13T16:38:12.128Z,85.38
2022-12-13T16:41:08.230Z,85.44
2022-12-13T16:43:58.612Z,85.47
2022-12-13T16:47:14.235Z,85.22
2022-12-13T16:49:28.772Z,85.68
2022-12-13T16:51:57.617Z,86.03
2022-12-13T16:54:26.519Z,85.94
2022-12-13T16:56:55.200Z,85.73
2022-12-13T16:59:26.272Z,85.48
2022-12-13T17:01:55.288Z,85.16
2022-12-13T17:04:24.909Z,84.55
2022-12-13T17:06:54.745Z,84.50
2022-12-13T17:09:25.293Z,85.06
2022-12-13T17:11:54.006Z,85.49
2022-12-13T17:14:22.719Z,84.85
2022-12-13T17:16:51.354Z,84.64
2022-12-13T17:19:20.108Z,84.50
2022-12-13T17:21:48.697Z,84.37
2022-12-13T17:33:17.524Z,84.85
2022-12-13T17:35:47.368Z,84.49
2022-12-13T17:38:16.185Z,85.06
2022-12-13T17:40:47.550Z,85.59
2022-12-13T17:43:33.060Z,85.31
2022-12-13T17:46:07.447Z,85.49
2022-12-13T17:48:40.673Z,85.17
2022-12-13T17:51:11.831Z,85.28
2022-12-13T17:53:43.068Z,84.96
2022-12-13T17:56:16.026Z,85.18
2022-12-13T17:58:45.229Z,84.90
2022-12-13T18:01:17.437Z,84.80
2022-12-13T18:03:47.975Z,85.14
2022-12-13T18:06:16.903Z,85.25
2022-12-13T18:08:46.897Z,85.96
2022-12-13T18:11:34.895Z,85.76
2022-12-13T18:14:06.559Z,86.01
2022-12-13T18:16:38.650Z,86.37
2022-12-13T18:19:12.002Z,85.87
2022-12-13T18:21:43.235Z,86.27
2022-12-13T18:24:12.507Z,86.29
2022-12-13T18:26:41.217Z,86.50
2022-12-13T18:29:09.914Z,86.21
2022-12-13T18:31:38.594Z,86.26
2022-12-13T18:34:08.500Z,86.25
2022-12-13T18:36:37.527Z,86.40
2022-12-13T18:39:07.047Z,86.20
2022-12-13T18:41:35.610Z,86.35
2022-12-13T18:44:10.386Z,86.45
2022-12-13T18:46:42.223Z,86.74
2022-12-13T18:49:13.544Z,86.70
2022-12-13T18:51:42.171Z,86.67
2022-12-13T18:54:10.831Z,86.98
2022-12-13T18:56:39.440Z,86.93
2022-12-13T18:59:08.277Z,87.04
2022-12-13T19:01:36.846Z,86.91
2022-12-13T19:04:05.632Z,87.24
2022-12-13T19:06:34.408Z,87.44
2022-12-13T19:09:03.165Z,87.39
2022-12-13T19:11:31.753Z,87.75
2022-12-13T19:14:00.353Z,87.69
2022-12-13T19:16:29.069Z,87.71
2022-12-13T19:18:58.214Z,87.71
2022-12-13T19:21:27.584Z,87.75
2022-12-13T19:23:58.331Z,88.09
2022-12-13T19:26:29.226Z,88.12
2022-12-13T19:28:59.388Z,87.86
2022-12-13T19:31:32.120Z,88.10
2022-12-13T19:34:03.742Z,88.37
2022-12-13T19:36:32.938Z,88.47
2022-12-13T19:39:01.672Z,88.67
2022-12-13T19:41:32.425Z,88.33
2022-12-13T19:44:04.809Z,88.34
2022-12-13T19:46:34.023Z,88.26
2022-12-13T19:49:02.794Z,88.61
2022-12-13T19:51:37.530Z,88.10
2022-12-13T19:54:08.061Z,88.03
2022-12-13T19:56:36.835Z,88.13
2022-12-13T19:59:05.440Z,88.16
2022-12-13T20:01:34.191Z,88.27
2022-12-13T20:04:02.797Z,87.89
2022-12-13T20:06:31.393Z,87.77
2022-12-13T20:08:59.908Z,87.94
2022-12-13T20:11:28.507Z,87.82
2022-12-13T20:13:57.444Z,87.83
2022-12-13T20:16:27.404Z,87.68
2022-12-13T20:18:58.883Z,87.38
2022-12-13T20:21:29.523Z,87.46
2022-12-13T20:23:58.419Z,87.31
2022-12-13T20:26:31.918Z,87.40
2022-12-13T20:29:00.659Z,86.93
2022-12-13T20:31:35.180Z,87.02
2022-12-13T20:34:10.071Z,87.08
2022-12-13T20:36:38.775Z,86.96
2022-12-13T20:39:08.564Z,86.90
2022-12-13T20:41:37.639Z,87.01
2022-12-13T20:44:08.950Z,87.18
2022-12-13T20:46:37.948Z,87.30
2022-12-13T20:49:09.392Z,87.51
2022-12-13T20:51:41.488Z,88.00
2022-12-13T20:54:10.632Z,87.92
2022-12-13T20:56:39.989Z,88.49
2022-12-13T20:59:12.940Z,88.55
2022-12-13T21:01:44.008Z,88.78
2022-12-13T21:04:20.043Z,88.77
2022-12-13T21:06:48.740Z,88.57
2022-12-13T21:09:18.206Z,88.42
2022-12-13T21:11:48.960Z,88.31
2022-12-13T21:14:25.316Z,88.03
2022-12-13T21:17:00.227Z,87.49
2022-12-13T21:19:39.092Z,87.42
2022-12-13T21:22:08.785Z,87.17
2022-12-13T21:24:37.290Z,86.69
2022-12-13T21:27:05.857Z,86.51
2022-12-13T21:29:34.400Z,86.50
2022-12-13T21:32:03.210Z,86.78
2022-12-13T21:34:33.087Z,86.44
2022-12-13T21:37:01.598Z,86.29
2022-12-13T21:39:31.075Z,86.18
2022-12-13T21:41:59.625Z,86.28
2022-12-13T21:44:28.560Z,86.30
2022-12-13T21:47:13.431Z,86.09
2022-12-13T21:49:48.540Z,85.89
2022-12-13T21:52:17.795Z,86.02
2022-12-13T21:54:46.461Z,85.52
2022-12-13T21:57:33.673Z,85.92
2022-12-13T22:00:02.476Z,85.52
2022-12-13T22:02:31.371Z,85.78
2022-12-13T22:05:00.049Z,85.50
2022-12-13T22:07:33.797Z,85.35
2022-12-13T22:10:02.862Z,85.82
2022-12-13T22:12:38.531Z,85.66
2022-12-13T22:15:13.741Z,85.84
2022-12-13T22:17:43.229Z,85.88
2022-12-13T22:20:15.497Z,85.83
2022-12-13T22:22:45.575Z,85.64
2022-12-13T22:25:14.250Z,85.01
2022-12-13T22:27:43.231Z,84.88
2022-12-13T22:30:12.102Z,84.57
2022-12-13T22:32:40.665Z,84.47
2022-12-13T22:35:09.441Z,83.93
2022-12-13T22:37:39.668Z,84.35
2022-12-13T22:40:09.287Z,84.50
2022-12-13T22:42:37.903Z,84.48
2022-12-13T22:45:07.266Z,84.38
2022-12-13T22:47:35.779Z,84.53
2022-12-13T22:50:04.787Z,84.74
2022-12-13T22:52:34.158Z,84.68
2022-12-13T22:55:02.937Z,84.54
2022-12-13T22:57:31.458Z,84.88
2022-12-13T23:00:00.002Z,84.88
2022-12-13T23:02:28.630Z,84.96
2022-12-13T23:04:57.236Z,84.98
2022-12-13T23:07:25.710Z,85.01
2022-12-13T23:09:54.267Z,85.25
2022-12-13T23:12:41.496Z,85.17
2022-12-13T23:15:10.515Z,85.15
2022-12-13T23:17:39.069Z,85.30
2022-12-13T23:20:08.865Z,85.81
2022-12-13T23:22:37.406Z,85.39
2022-12-13T23:25:06.631Z,85.54
2022-12-13T23:27:35.223Z,85.43
2022-12-13T23:30:04.329Z,85.37
2022-12-13T23:32:32.878Z,85.38
2022-12-13T23:35:01.374Z,85.33
2022-12-13T23:37:29.975Z,85.43
2022-12-13T23:39:58.644Z,85.53
2022-12-13T23:42:30.339Z,85.55
2022-12-13T23:44:58.843Z,85.53
2022-12-13T23:47:27.366Z,85.87
2022-12-13T23:49:55.875Z,85.73
2022-12-13T23:52:24.391Z,85.53
2022-12-13T23:54:52.943Z,85.88
2022-12-13T23:57:21.455Z,85.68
2022-12-13T23:59:49.950Z,85.96
